METAR Data
IDs: Format: Raw Decoded Include TAF

Data at: 1858 UTC 16 Oct 2021

KHQZ 161850Z 01008G15KT 10SM CLR 22/00 A3035
KHQZ 161750Z 33008G15KT 10SM CLR 21/M01 A3039
KHQZ 161650Z 33009KT 10SM CLR 20/03 A3039
KHQZ 161550Z 35006KT 10SM CLR 19/04 A3039
KHQZ 161450Z 31004KT 10SM CLR 16/09 A3039
KHQZ 161350Z 34004KT 10SM CLR 13/08 A3037
KHQZ 161250Z 31004KT 10SM CLR 09/07 A3034
KHQZ 161150Z 32003KT 10SM CLR 09/07 A3033
KHQZ 161135Z AUTO 32004KT 10SM CLR 10/07 A3033 RMK AO1 T01010072
KHQZ 161115Z AUTO 32004KT 10SM CLR 10/07 A3032 RMK AO1 T01010072
KHQZ 161055Z AUTO 32004KT 10SM CLR 10/07 A3031 RMK AO1 T01020071
KHQZ 161035Z AUTO 32004KT 10SM CLR 11/07 A3031 RMK AO1 T01090068
KHQZ 161015Z AUTO 32005KT 10SM CLR 12/07 A3031 RMK AO1 T01150070
KHQZ 160955Z AUTO 32006KT 10SM CLR 12/07 A3031 RMK AO1 T01160070
KHQZ 160935Z AUTO 32005KT 10SM CLR 12/07 A3030 RMK AO1 T01170070
KHQZ 160915Z AUTO 33006KT 10SM CLR 12/07 A3030 RMK AO1 T01180072
KHQZ 160855Z AUTO 31004KT 10SM CLR 11/08 A3030 RMK AO1 T01130076
KHQZ 160835Z AUTO 34003KT 10SM CLR 12/07 A3030 RMK AO1 T01160071
KHQZ 160815Z AUTO 00000KT 10SM CLR 12/08 A3030 RMK AO1 T01190078
KHQZ 160755Z AUTO 08003KT 10SM CLR 12/07 A3030 RMK AO1 T01220070
KHQZ 160735Z AUTO 32007KT 10SM CLR 13/07 A3029 RMK AO1 T01310069
KHQZ 160715Z AUTO 32006KT 10SM CLR 13/07 A3029 RMK AO1 T01280071
KHQZ 160655Z AUTO 32004KT 10SM CLR 13/07 A3029 RMK AO1 T01270072
KHQZ 160635Z AUTO 33005KT 10SM CLR 13/07 A3029 RMK AO1 T01320071
KHQZ 160615Z AUTO 33006KT 10SM CLR 14/07 A3028 RMK AO1 T01350070
KHQZ 160555Z AUTO 33005KT 10SM CLR 14/07 A3027 RMK AO1 T01380069 10200 20138 402610138
KHQZ 160535Z AUTO 34005KT 10SM CLR 14/07 A3027 RMK AO1 T01430070
KHQZ 160515Z AUTO 34006KT 10SM CLR 15/07 A3026 RMK AO1 T01450066
KHQZ 160455Z AUTO 34006KT 10SM CLR 15/07 A3026 RMK AO1 T01490065
KHQZ 160435Z AUTO 34007KT 10SM CLR 15/07 A3025 RMK AO1 T01530065
KHQZ 160415Z AUTO 34007KT 10SM CLR 16/07 A3024 RMK AO1 T01550065
KHQZ 160355Z AUTO 34006KT 10SM CLR 16/07 A3024 RMK AO1 T01550065
KHQZ 160335Z AUTO 33008KT 10SM CLR 17/07 A3023 RMK AO1 T01650067
KHQZ 160315Z AUTO 34007G15KT 10SM CLR 17/07 A3021 RMK AO1 T01700065
KHQZ 160255Z AUTO 34011G14KT 10SM CLR 17/06 A3020 RMK AO1 T01740060
KHQZ 160235Z AUTO 34010KT 10SM CLR 18/06 A3020 RMK AO1 T01750061
KHQZ 160215Z AUTO 34009KT 10SM CLR 18/07 A3019 RMK AO1 T01770065
KHQZ 160155Z AUTO 34009G14KT 10SM CLR 18/07 A3018 RMK AO1 T01800070
KHQZ 160050Z 33009KT 10SM CLR 19/07 A3015
KHQZ 152350Z 33010G18KT 10SM CLR 21/08 A3011
KHQZ 152250Z 33011G20KT 10SM CLR 22/10 A3008
KHQZ 152150Z 34013G20KT 10SM FEW032 24/12 A3006
KHQZ 152050Z 33011G21KT 10SM BKN032 24/14 A3004
KHQZ 151950Z 31012G20KT 10SM OVC024 23/17 A3003
KHQZ 151850Z 29016G21KT 10SM BKN029 25/18 A3000
KHQZ 151750Z 29015G23KT 10SM SCT026 SCT036 24/18 A3000
KHQZ 151650Z 28011G17KT 10SM BKN024 OVC032 25/19 A2998
KHQZ 151550Z 26008KT 10SM BKN018 OVC027 24/20 A2996
KHQZ 151450Z 22008KT 10SM BKN011 22/22 A2994
KHQZ 151350Z 19007KT 7SM BR OVC005 22/22 A2992
KHQZ 151250Z 16010KT 3SM BR OVC003 21/21 A2988
KHQZ 151225Z 17008KT 2SM BR OVC003 21/21 A2988
KHQZ 151150Z 18007KT 7SM OVC005 21/21 A2988
KHQZ 151135Z AUTO 19006KT 7SM OVC005 21/21 A2988 RMK AO1 T02080208
KHQZ 151115Z AUTO 21004KT 7SM BKN005 21/21 A2988 RMK AO1 T02060206
KHQZ 151055Z AUTO 18004KT 5SM SCT005 20/20 A2987 RMK AO1 T02020202
KHQZ 151035Z AUTO 17004KT 5SM CLR 20/20 A2986 RMK AO1 T02020202
KHQZ 151015Z AUTO 16004KT 5SM CLR 20/20 A2986 RMK AO1 T02000200
KHQZ 150955Z AUTO 17005KT 7SM CLR 20/20 A2985 RMK AO1 T02030203
KHQZ 150935Z AUTO 18005KT 10SM CLR 21/21 A2985 RMK AO1 T02060206
KHQZ 150915Z AUTO 19006KT 10SM CLR 21/21 A2985 RMK AO1 T02070207
KHQZ 150855Z AUTO 17003KT 10SM CLR 21/21 A2984 RMK AO1 T02070207
KHQZ 150835Z AUTO 19005KT 10SM CLR 21/21 A2984 RMK AO1 T02100210
KHQZ 150815Z AUTO 18005KT 10SM CLR 21/21 A2984 RMK AO1 T02100210
KHQZ 150755Z AUTO 15007KT 10SM CLR 21/21 A2984 RMK AO1 T02110211
KHQZ 150735Z AUTO 16007KT 10SM CLR 21/21 A2984 RMK AO1 T02110211
KHQZ 150715Z AUTO 15007KT 10SM CLR 21/21 A2985 RMK AO1 T02110211